sensor_id;sensor_type;location;lat;lon;timestamp;P1;durP1;ratioP1;P2;durP2;ratioP2
11677;SDS011;5895;41.950;24.372;2024-03-02T00:00:50;8.00;;;4.68;;
11677;SDS011;5895;41.950;24.372;2024-03-02T00:03:18;7.15;;;4.53;;
11677;SDS011;5895;41.950;24.372;2024-03-02T00:05:49;10.38;;;4.85;;
11677;SDS011;5895;41.950;24.372;2024-03-02T00:08:20;11.98;;;5.38;;
11677;SDS011;5895;41.950;24.372;2024-03-02T00:10:50;7.97;;;4.63;;
11677;SDS011;5895;41.950;24.372;2024-03-02T00:13:21;6.22;;;4.60;;
11677;SDS011;5895;41.950;24.372;2024-03-02T00:15:51;8.98;;;4.70;;
11677;SDS011;5895;41.950;24.372;2024-03-02T00:18:19;10.23;;;4.75;;
11677;SDS011;5895;41.950;24.372;2024-03-02T00:20:52;9.35;;;4.78;;
11677;SDS011;5895;41.950;24.372;2024-03-02T00:23:20;12.88;;;5.47;;
11677;SDS011;5895;41.950;24.372;2024-03-02T00:25:48;8.63;;;4.75;;
11677;SDS011;5895;41.950;24.372;2024-03-02T00:28:20;10.13;;;5.25;;
11677;SDS011;5895;41.950;24.372;2024-03-02T00:30:53;9.38;;;4.90;;
11677;SDS011;5895;41.950;24.372;2024-03-02T00:33:22;10.30;;;5.32;;
11677;SDS011;5895;41.950;24.372;2024-03-02T00:35:50;7.45;;;4.78;;
11677;SDS011;5895;41.950;24.372;2024-03-02T00:38:17;9.13;;;4.97;;
11677;SDS011;5895;41.950;24.372;2024-03-02T00:40:44;7.53;;;4.82;;
11677;SDS011;5895;41.950;24.372;2024-03-02T00:43:18;8.10;;;4.90;;
11677;SDS011;5895;41.950;24.372;2024-03-02T00:46:06;9.52;;;4.85;;
11677;SDS011;5895;41.950;24.372;2024-03-02T00:48:33;8.73;;;5.13;;
11677;SDS011;5895;41.950;24.372;2024-03-02T00:51:01;7.50;;;4.88;;
11677;SDS011;5895;41.950;24.372;2024-03-02T00:53:29;8.18;;;5.05;;
11677;SDS011;5895;41.950;24.372;2024-03-02T00:55:57;9.52;;;5.50;;
11677;SDS011;5895;41.950;24.372;2024-03-02T00:58:25;7.65;;;4.82;;
11677;SDS011;5895;41.950;24.372;2024-03-02T01:00:53;8.57;;;4.60;;
11677;SDS011;5895;41.950;24.372;2024-03-02T01:03:20;12.05;;;5.20;;
11677;SDS011;5895;41.950;24.372;2024-03-02T01:05:47;10.25;;;5.20;;
11677;SDS011;5895;41.950;24.372;2024-03-02T01:08:14;8.65;;;5.00;;
11677;SDS011;5895;41.950;24.372;2024-03-02T01:10:41;10.93;;;5.53;;
11677;SDS011;5895;41.950;24.372;2024-03-02T01:13:09;7.47;;;4.80;;
11677;SDS011;5895;41.950;24.372;2024-03-02T01:15:36;10.20;;;5.28;;
11677;SDS011;5895;41.950;24.372;2024-03-02T01:18:05;10.43;;;5.97;;
11677;SDS011;5895;41.950;24.372;2024-03-02T01:20:32;7.88;;;5.30;;
11677;SDS011;5895;41.950;24.372;2024-03-02T01:22:59;10.80;;;5.53;;
11677;SDS011;5895;41.950;24.372;2024-03-02T01:25:26;8.57;;;5.38;;
11677;SDS011;5895;41.950;24.372;2024-03-02T01:27:53;8.13;;;4.70;;
11677;SDS011;5895;41.950;24.372;2024-03-02T01:30:20;9.65;;;5.40;;
11677;SDS011;5895;41.950;24.372;2024-03-02T01:32:47;9.63;;;5.68;;
11677;SDS011;5895;41.950;24.372;2024-03-02T01:35:15;9.95;;;5.50;;
11677;SDS011;5895;41.950;24.372;2024-03-02T01:37:42;9.73;;;5.70;;
11677;SDS011;5895;41.950;24.372;2024-03-02T01:40:10;12.02;;;5.57;;
11677;SDS011;5895;41.950;24.372;2024-03-02T01:42:38;10.07;;;5.60;;
11677;SDS011;5895;41.950;24.372;2024-03-02T01:45:05;13.90;;;5.43;;
11677;SDS011;5895;41.950;24.372;2024-03-02T01:47:33;8.95;;;5.55;;
11677;SDS011;5895;41.950;24.372;2024-03-02T01:50:01;9.95;;;5.55;;
11677;SDS011;5895;41.950;24.372;2024-03-02T01:52:29;10.85;;;6.05;;
11677;SDS011;5895;41.950;24.372;2024-03-02T01:54:56;8.10;;;5.35;;
11677;SDS011;5895;41.950;24.372;2024-03-02T01:57:23;10.70;;;6.00;;
11677;SDS011;5895;41.950;24.372;2024-03-02T01:59:50;8.80;;;5.90;;
11677;SDS011;5895;41.950;24.372;2024-03-02T02:02:18;8.73;;;5.65;;
11677;SDS011;5895;41.950;24.372;2024-03-02T02:04:46;12.50;;;6.20;;
11677;SDS011;5895;41.950;24.372;2024-03-02T02:07:13;11.02;;;6.05;;
11677;SDS011;5895;41.950;24.372;2024-03-02T02:09:42;8.88;;;6.40;;
11677;SDS011;5895;41.950;24.372;2024-03-02T02:12:09;9.93;;;5.78;;
11677;SDS011;5895;41.950;24.372;2024-03-02T02:14:37;10.75;;;5.93;;
11677;SDS011;5895;41.950;24.372;2024-03-02T02:17:05;8.70;;;6.20;;
11677;SDS011;5895;41.950;24.372;2024-03-02T02:19:32;8.98;;;5.80;;
11677;SDS011;5895;41.950;24.372;2024-03-02T02:22:00;10.45;;;6.40;;
11677;SDS011;5895;41.950;24.372;2024-03-02T02:24:27;10.60;;;6.70;;
11677;SDS011;5895;41.950;24.372;2024-03-02T02:26:54;9.68;;;6.47;;
11677;SDS011;5895;41.950;24.372;2024-03-02T02:29:21;8.52;;;6.35;;
11677;SDS011;5895;41.950;24.372;2024-03-02T02:31:48;10.02;;;6.45;;
11677;SDS011;5895;41.950;24.372;2024-03-02T02:34:15;12.68;;;7.30;;
11677;SDS011;5895;41.950;24.372;2024-03-02T02:36:42;10.73;;;6.60;;
11677;SDS011;5895;41.950;24.372;2024-03-02T02:39:12;10.20;;;6.45;;
11677;SDS011;5895;41.950;24.372;2024-03-02T02:41:42;9.80;;;7.22;;
11677;SDS011;5895;41.950;24.372;2024-03-02T02:44:09;9.82;;;6.63;;
11677;SDS011;5895;41.950;24.372;2024-03-02T02:46:38;9.45;;;6.80;;
11677;SDS011;5895;41.950;24.372;2024-03-02T02:49:05;8.60;;;7.03;;
11677;SDS011;5895;41.950;24.372;2024-03-02T02:51:32;9.88;;;6.93;;
11677;SDS011;5895;41.950;24.372;2024-03-02T02:53:59;10.18;;;6.55;;
11677;SDS011;5895;41.950;24.372;2024-03-02T02:56:27;9.77;;;7.38;;
11677;SDS011;5895;41.950;24.372;2024-03-02T02:58:54;9.48;;;7.40;;
11677;SDS011;5895;41.950;24.372;2024-03-02T03:01:21;12.70;;;7.95;;
11677;SDS011;5895;41.950;24.372;2024-03-02T03:03:48;9.68;;;7.30;;
11677;SDS011;5895;41.950;24.372;2024-03-02T03:06:15;11.73;;;8.13;;
11677;SDS011;5895;41.950;24.372;2024-03-02T03:08:42;9.10;;;6.82;;
11677;SDS011;5895;41.950;24.372;2024-03-02T03:11:09;12.25;;;6.97;;
11677;SDS011;5895;41.950;24.372;2024-03-02T03:13:38;9.93;;;7.38;;
11677;SDS011;5895;41.950;24.372;2024-03-02T03:16:05;8.00;;;6.78;;
11677;SDS011;5895;41.950;24.372;2024-03-02T03:18:32;10.27;;;7.13;;
11677;SDS011;5895;41.950;24.372;2024-03-02T03:20:59;11.82;;;7.15;;
11677;SDS011;5895;41.950;24.372;2024-03-02T03:23:26;9.73;;;6.85;;
11677;SDS011;5895;41.950;24.372;2024-03-02T03:25:53;9.05;;;7.30;;
11677;SDS011;5895;41.950;24.372;2024-03-02T03:28:20;12.15;;;7.35;;
11677;SDS011;5895;41.950;24.372;2024-03-02T03:30:48;10.50;;;7.07;;
11677;SDS011;5895;41.950;24.372;2024-03-02T03:33:15;10.23;;;7.82;;
11677;SDS011;5895;41.950;24.372;2024-03-02T03:35:42;13.55;;;7.88;;
11677;SDS011;5895;41.950;24.372;2024-03-02T03:38:09;10.02;;;7.80;;
11677;SDS011;5895;41.950;24.372;2024-03-02T03:40:37;11.50;;;7.30;;
11677;SDS011;5895;41.950;24.372;2024-03-02T03:43:04;12.68;;;7.88;;
11677;SDS011;5895;41.950;24.372;2024-03-02T03:45:31;11.45;;;7.45;;
11677;SDS011;5895;41.950;24.372;2024-03-02T03:47:59;9.05;;;7.03;;
11677;SDS011;5895;41.950;24.372;2024-03-02T03:50:26;11.07;;;7.18;;
11677;SDS011;5895;41.950;24.372;2024-03-02T03:52:53;13.35;;;7.80;;
11677;SDS011;5895;41.950;24.372;2024-03-02T03:55:20;11.80;;;7.50;;
11677;SDS011;5895;41.950;24.372;2024-03-02T03:57:47;9.90;;;7.38;;
11677;SDS011;5895;41.950;24.372;2024-03-02T04:00:14;10.18;;;6.88;;
11677;SDS011;5895;41.950;24.372;2024-03-02T04:02:41;11.90;;;7.50;;
11677;SDS011;5895;41.950;24.372;2024-03-02T04:05:10;13.15;;;7.38;;
11677;SDS011;5895;41.950;24.372;2024-03-02T04:07:37;9.77;;;7.70;;
11677;SDS011;5895;41.950;24.372;2024-03-02T04:10:08;8.70;;;6.35;;
11677;SDS011;5895;41.950;24.372;2024-03-02T04:12:35;7.78;;;6.28;;
11677;SDS011;5895;41.950;24.372;2024-03-02T04:15:03;8.05;;;6.38;;
11677;SDS011;5895;41.950;24.372;2024-03-02T04:17:32;8.15;;;6.07;;
11677;SDS011;5895;41.950;24.372;2024-03-02T04:20:00;7.30;;;6.00;;
11677;SDS011;5895;41.950;24.372;2024-03-02T04:22:32;9.63;;;5.88;;
11677;SDS011;5895;41.950;24.372;2024-03-02T04:25:00;8.00;;;6.05;;
11677;SDS011;5895;41.950;24.372;2024-03-02T04:27:27;11.25;;;6.55;;
11677;SDS011;5895;41.950;24.372;2024-03-02T04:29:54;9.02;;;6.30;;
11677;SDS011;5895;41.950;24.372;2024-03-02T04:32:21;7.47;;;6.07;;
11677;SDS011;5895;41.950;24.372;2024-03-02T04:34:48;9.27;;;6.07;;
11677;SDS011;5895;41.950;24.372;2024-03-02T04:37:15;8.73;;;6.50;;
11677;SDS011;5895;41.950;24.372;2024-03-02T04:39:43;8.93;;;5.85;;
11677;SDS011;5895;41.950;24.372;2024-03-02T04:42:10;7.78;;;6.30;;
11677;SDS011;5895;41.950;24.372;2024-03-02T04:44:37;8.07;;;6.72;;
11677;SDS011;5895;41.950;24.372;2024-03-02T04:47:04;7.22;;;5.50;;
11677;SDS011;5895;41.950;24.372;2024-03-02T04:49:32;8.73;;;6.30;;
11677;SDS011;5895;41.950;24.372;2024-03-02T04:51:59;6.63;;;5.93;;
11677;SDS011;5895;41.950;24.372;2024-03-02T04:54:26;7.50;;;6.10;;
11677;SDS011;5895;41.950;24.372;2024-03-02T04:56:54;8.85;;;6.10;;
11677;SDS011;5895;41.950;24.372;2024-03-02T04:59:21;8.30;;;6.40;;
11677;SDS011;5895;41.950;24.372;2024-03-02T05:01:48;6.93;;;5.82;;
11677;SDS011;5895;41.950;24.372;2024-03-02T05:04:15;7.50;;;6.32;;
11677;SDS011;5895;41.950;24.372;2024-03-02T05:06:42;9.07;;;6.60;;
11677;SDS011;5895;41.950;24.372;2024-03-02T05:09:09;6.57;;;5.97;;
11677;SDS011;5895;41.950;24.372;2024-03-02T05:11:36;6.45;;;5.43;;
11677;SDS011;5895;41.950;24.372;2024-03-02T05:14:36;7.00;;;6.07;;
11677;SDS011;5895;41.950;24.372;2024-03-02T05:17:02;7.13;;;5.75;;
11677;SDS011;5895;41.950;24.372;2024-03-02T05:19:30;8.05;;;6.00;;
11677;SDS011;5895;41.950;24.372;2024-03-02T05:21:57;7.32;;;5.70;;
11677;SDS011;5895;41.950;24.372;2024-03-02T05:24:24;12.25;;;8.65;;
11677;SDS011;5895;41.950;24.372;2024-03-02T05:26:52;14.20;;;10.35;;
11677;SDS011;5895;41.950;24.372;2024-03-02T05:29:19;12.02;;;10.48;;
11677;SDS011;5895;41.950;24.372;2024-03-02T05:31:48;11.98;;;9.50;;
11677;SDS011;5895;41.950;24.372;2024-03-02T05:34:15;9.45;;;8.52;;
11677;SDS011;5895;41.950;24.372;2024-03-02T05:36:42;13.85;;;8.27;;
11677;SDS011;5895;41.950;24.372;2024-03-02T05:39:09;15.48;;;11.52;;
11677;SDS011;5895;41.950;24.372;2024-03-02T05:41:36;16.48;;;13.32;;
11677;SDS011;5895;41.950;24.372;2024-03-02T05:44:04;11.07;;;8.82;;
11677;SDS011;5895;41.950;24.372;2024-03-02T05:46:31;9.60;;;8.07;;
11677;SDS011;5895;41.950;24.372;2024-03-02T05:48:59;10.48;;;7.82;;
11677;SDS011;5895;41.950;24.372;2024-03-02T05:51:26;11.65;;;8.57;;
11677;SDS011;5895;41.950;24.372;2024-03-02T05:53:53;16.05;;;13.98;;
11677;SDS011;5895;41.950;24.372;2024-03-02T05:56:20;19.40;;;17.05;;
11677;SDS011;5895;41.950;24.372;2024-03-02T05:58:47;18.30;;;15.85;;
11677;SDS011;5895;41.950;24.372;2024-03-02T06:01:26;19.17;;;15.48;;
11677;SDS011;5895;41.950;24.372;2024-03-02T06:03:55;19.02;;;15.18;;
11677;SDS011;5895;41.950;24.372;2024-03-02T06:06:25;20.33;;;18.13;;
11677;SDS011;5895;41.950;24.372;2024-03-02T06:08:52;22.88;;;20.05;;
11677;SDS011;5895;41.950;24.372;2024-03-02T06:11:19;42.17;;;37.63;;
11677;SDS011;5895;41.950;24.372;2024-03-02T06:13:46;36.67;;;32.67;;
11677;SDS011;5895;41.950;24.372;2024-03-02T06:16:13;35.13;;;29.25;;
11677;SDS011;5895;41.950;24.372;2024-03-02T06:18:40;34.95;;;27.83;;
11677;SDS011;5895;41.950;24.372;2024-03-02T06:21:07;19.52;;;14.77;;
11677;SDS011;5895;41.950;24.372;2024-03-02T06:23:36;19.38;;;15.95;;
11677;SDS011;5895;41.950;24.372;2024-03-02T06:26:03;14.13;;;12.23;;
11677;SDS011;5895;41.950;24.372;2024-03-02T06:28:30;17.45;;;15.52;;
11677;SDS011;5895;41.950;24.372;2024-03-02T06:30:57;18.70;;;14.75;;
11677;SDS011;5895;41.950;24.372;2024-03-02T06:33:24;17.15;;;14.55;;
11677;SDS011;5895;41.950;24.372;2024-03-02T06:35:51;17.95;;;15.40;;
11677;SDS011;5895;41.950;24.372;2024-03-02T06:38:18;14.98;;;13.32;;
11677;SDS011;5895;41.950;24.372;2024-03-02T06:40:46;12.20;;;10.68;;
11677;SDS011;5895;41.950;24.372;2024-03-02T06:43:13;10.65;;;9.52;;
11677;SDS011;5895;41.950;24.372;2024-03-02T06:45:41;10.68;;;9.63;;
11677;SDS011;5895;41.950;24.372;2024-03-02T06:48:08;11.85;;;9.40;;
11677;SDS011;5895;41.950;24.372;2024-03-02T06:50:35;13.73;;;10.45;;
11677;SDS011;5895;41.950;24.372;2024-03-02T06:53:02;11.32;;;10.10;;
11677;SDS011;5895;41.950;24.372;2024-03-02T06:55:29;13.35;;;11.85;;
11677;SDS011;5895;41.950;24.372;2024-03-02T06:57:57;16.85;;;13.57;;
11677;SDS011;5895;41.950;24.372;2024-03-02T07:00:24;16.88;;;13.70;;
11677;SDS011;5895;41.950;24.372;2024-03-02T07:02:51;13.75;;;12.32;;
11677;SDS011;5895;41.950;24.372;2024-03-02T07:05:18;15.95;;;14.23;;
11677;SDS011;5895;41.950;24.372;2024-03-02T07:07:46;29.20;;;21.20;;
11677;SDS011;5895;41.950;24.372;2024-03-02T07:10:13;20.70;;;17.27;;
11677;SDS011;5895;41.950;24.372;2024-03-02T07:12:40;15.95;;;13.95;;
11677;SDS011;5895;41.950;24.372;2024-03-02T07:15:09;18.10;;;15.25;;
11677;SDS011;5895;41.950;24.372;2024-03-02T07:18:08;17.85;;;14.88;;
11677;SDS011;5895;41.950;24.372;2024-03-02T07:20:35;21.05;;;17.90;;
11677;SDS011;5895;41.950;24.372;2024-03-02T07:23:04;16.13;;;13.60;;
11677;SDS011;5895;41.950;24.372;2024-03-02T07:25:32;7.65;;;6.88;;
11677;SDS011;5895;41.950;24.372;2024-03-02T07:27:59;4.88;;;4.43;;
11677;SDS011;5895;41.950;24.372;2024-03-02T07:30:27;5.57;;;4.30;;
11677;SDS011;5895;41.950;24.372;2024-03-02T07:32:54;4.18;;;3.78;;
11677;SDS011;5895;41.950;24.372;2024-03-02T07:35:21;6.00;;;4.10;;
11677;SDS011;5895;41.950;24.372;2024-03-02T07:37:51;5.50;;;4.72;;
11677;SDS011;5895;41.950;24.372;2024-03-02T07:40:19;6.65;;;5.00;;
11677;SDS011;5895;41.950;24.372;2024-03-02T07:42:46;7.10;;;4.70;;
11677;SDS011;5895;41.950;24.372;2024-03-02T07:45:13;5.15;;;4.65;;
11677;SDS011;5895;41.950;24.372;2024-03-02T07:47:41;6.97;;;5.10;;
11677;SDS011;5895;41.950;24.372;2024-03-02T07:50:09;5.78;;;4.38;;
11677;SDS011;5895;41.950;24.372;2024-03-02T07:52:36;4.57;;;4.18;;
11677;SDS011;5895;41.950;24.372;2024-03-02T07:55:03;4.47;;;3.92;;
11677;SDS011;5895;41.950;24.372;2024-03-02T07:57:31;5.93;;;4.85;;
11677;SDS011;5895;41.950;24.372;2024-03-02T07:59:58;5.20;;;4.40;;
11677;SDS011;5895;41.950;24.372;2024-03-02T08:02:25;8.35;;;5.05;;
11677;SDS011;5895;41.950;24.372;2024-03-02T08:04:54;5.13;;;4.63;;
11677;SDS011;5895;41.950;24.372;2024-03-02T08:07:21;5.38;;;4.88;;
11677;SDS011;5895;41.950;24.372;2024-03-02T08:09:48;5.22;;;4.72;;
11677;SDS011;5895;41.950;24.372;2024-03-02T08:12:15;5.32;;;4.82;;
11677;SDS011;5895;41.950;24.372;2024-03-02T08:14:43;5.38;;;4.88;;
11677;SDS011;5895;41.950;24.372;2024-03-02T08:17:10;5.80;;;5.20;;
11677;SDS011;5895;41.950;24.372;2024-03-02T08:19:37;6.57;;;5.88;;
11677;SDS011;5895;41.950;24.372;2024-03-02T08:22:06;5.38;;;4.88;;
11677;SDS011;5895;41.950;24.372;2024-03-02T08:24:33;6.78;;;5.60;;
11677;SDS011;5895;41.950;24.372;2024-03-02T08:27:01;22.63;;;7.22;;
11677;SDS011;5895;41.950;24.372;2024-03-02T08:29:28;5.63;;;5.00;;
11677;SDS011;5895;41.950;24.372;2024-03-02T08:31:55;5.63;;;5.03;;
11677;SDS011;5895;41.950;24.372;2024-03-02T08:34:22;4.88;;;4.40;;
11677;SDS011;5895;41.950;24.372;2024-03-02T08:36:49;4.45;;;3.85;;
11677;SDS011;5895;41.950;24.372;2024-03-02T08:39:18;5.88;;;5.07;;
11677;SDS011;5895;41.950;24.372;2024-03-02T08:41:46;4.45;;;4.10;;
11677;SDS011;5895;41.950;24.372;2024-03-02T08:44:13;4.53;;;3.85;;
11677;SDS011;5895;41.950;24.372;2024-03-02T08:46:41;4.43;;;4.03;;
11677;SDS011;5895;41.950;24.372;2024-03-02T08:49:08;4.82;;;4.43;;
11677;SDS011;5895;41.950;24.372;2024-03-02T08:51:35;4.60;;;4.20;;
11677;SDS011;5895;41.950;24.372;2024-03-02T08:54:02;4.82;;;4.43;;
11677;SDS011;5895;41.950;24.372;2024-03-02T08:56:31;3.58;;;3.28;;
11677;SDS011;5895;41.950;24.372;2024-03-02T08:58:58;3.45;;;3.17;;
11677;SDS011;5895;41.950;24.372;2024-03-02T09:01:25;2.65;;;2.45;;
11677;SDS011;5895;41.950;24.372;2024-03-02T09:03:52;2.70;;;2.50;;
11677;SDS011;5895;41.950;24.372;2024-03-02T09:06:19;2.40;;;2.20;;
11677;SDS011;5895;41.950;24.372;2024-03-02T09:08:46;1.80;;;1.70;;
11677;SDS011;5895;41.950;24.372;2024-03-02T09:11:15;2.50;;;2.30;;
11677;SDS011;5895;41.950;24.372;2024-03-02T09:13:43;2.90;;;2.10;;
11677;SDS011;5895;41.950;24.372;2024-03-02T09:16:10;15.52;;;7.97;;
11677;SDS011;5895;41.950;24.372;2024-03-02T09:18:37;2.58;;;2.00;;
11677;SDS011;5895;41.950;24.372;2024-03-02T09:21:04;3.38;;;2.22;;
11677;SDS011;5895;41.950;24.372;2024-03-02T09:23:33;2.20;;;2.00;;
11677;SDS011;5895;41.950;24.372;2024-03-02T09:26:00;1.70;;;1.60;;
11677;SDS011;5895;41.950;24.372;2024-03-02T09:28:28;1.90;;;1.80;;
11677;SDS011;5895;41.950;24.372;2024-03-02T09:30:56;2.63;;;2.15;;
11677;SDS011;5895;41.950;24.372;2024-03-02T09:33:23;2.40;;;2.20;;
11677;SDS011;5895;41.950;24.372;2024-03-02T09:35:50;2.50;;;2.30;;
11677;SDS011;5895;41.950;24.372;2024-03-02T09:38:17;2.45;;;2.15;;
11677;SDS011;5895;41.950;24.372;2024-03-02T09:40:44;1.98;;;1.88;;
11677;SDS011;5895;41.950;24.372;2024-03-02T09:43:12;2.22;;;2.03;;
11677;SDS011;5895;41.950;24.372;2024-03-02T09:45:40;1.70;;;1.60;;
11677;SDS011;5895;41.950;24.372;2024-03-02T09:48:09;2.20;;;2.10;;
11677;SDS011;5895;41.950;24.372;2024-03-02T09:50:36;1.70;;;1.60;;
11677;SDS011;5895;41.950;24.372;2024-03-02T09:53:03;1.65;;;1.55;;
11677;SDS011;5895;41.950;24.372;2024-03-02T09:55:31;1.85;;;1.50;;
11677;SDS011;5895;41.950;24.372;2024-03-02T09:57:58;1.85;;;1.75;;
11677;SDS011;5895;41.950;24.372;2024-03-02T10:00:25;2.35;;;1.90;;
11677;SDS011;5895;41.950;24.372;2024-03-02T10:02:52;1.52;;;1.42;;
11677;SDS011;5895;41.950;24.372;2024-03-02T10:05:24;1.33;;;1.23;;
11677;SDS011;5895;41.950;24.372;2024-03-02T10:08:00;1.00;;;1.00;;
11677;SDS011;5895;41.950;24.372;2024-03-02T10:10:34;1.00;;;1.00;;
11677;SDS011;5895;41.950;24.372;2024-03-02T10:13:05;1.40;;;1.30;;
11677;SDS011;5895;41.950;24.372;2024-03-02T10:15:34;1.13;;;1.10;;
11677;SDS011;5895;41.950;24.372;2024-03-02T10:18:02;1.40;;;1.30;;
11677;SDS011;5895;41.950;24.372;2024-03-02T10:20:31;1.30;;;1.20;;
11677;SDS011;5895;41.950;24.372;2024-03-02T10:25:41;1.40;;;1.30;;
11677;SDS011;5895;41.950;24.372;2024-03-02T10:28:09;1.55;;;1.45;;
11677;SDS011;5895;41.950;24.372;2024-03-02T10:30:36;1.40;;;1.30;;
11677;SDS011;5895;41.950;24.372;2024-03-02T10:33:03;1.75;;;1.65;;
11677;SDS011;5895;41.950;24.372;2024-03-02T10:35:33;0.90;;;0.90;;
11677;SDS011;5895;41.950;24.372;2024-03-02T10:38:03;0.90;;;0.90;;
11677;SDS011;5895;41.950;24.372;2024-03-02T10:40:32;0.90;;;0.90;;
11677;SDS011;5895;41.950;24.372;2024-03-02T10:42:59;0.80;;;0.80;;
11677;SDS011;5895;41.950;24.372;2024-03-02T10:45:28;1.60;;;0.98;;
11677;SDS011;5895;41.950;24.372;2024-03-02T10:47:56;0.93;;;0.93;;
11677;SDS011;5895;41.950;24.372;2024-03-02T10:50:24;1.10;;;1.10;;
11677;SDS011;5895;41.950;24.372;2024-03-02T10:52:53;0.95;;;0.95;;
11677;SDS011;5895;41.950;24.372;2024-03-02T10:55:20;1.27;;;1.00;;
11677;SDS011;5895;41.950;24.372;2024-03-02T10:57:50;1.30;;;1.20;;
11677;SDS011;5895;41.950;24.372;2024-03-02T11:00:18;0.90;;;0.90;;
11677;SDS011;5895;41.950;24.372;2024-03-02T11:02:50;1.15;;;1.15;;
11677;SDS011;5895;41.950;24.372;2024-03-02T11:05:24;1.38;;;1.10;;
11677;SDS011;5895;41.950;24.372;2024-03-02T11:07:59;1.20;;;1.10;;
11677;SDS011;5895;41.950;24.372;2024-03-02T11:10:30;1.40;;;1.30;;
11677;SDS011;5895;41.950;24.372;2024-03-02T11:13:04;1.30;;;1.20;;
11677;SDS011;5895;41.950;24.372;2024-03-02T11:15:32;1.33;;;1.23;;
11677;SDS011;5895;41.950;24.372;2024-03-02T11:18:01;1.23;;;1.20;;
11677;SDS011;5895;41.950;24.372;2024-03-02T11:20:34;1.20;;;1.10;;
11677;SDS011;5895;41.950;24.372;2024-03-02T11:23:08;1.50;;;1.40;;
11677;SDS011;5895;41.950;24.372;2024-03-02T11:25:37;1.30;;;1.20;;
11677;SDS011;5895;41.950;24.372;2024-03-02T11:28:05;4.10;;;3.80;;
11677;SDS011;5895;41.950;24.372;2024-03-02T11:30:49;1.77;;;1.67;;
11677;SDS011;5895;41.950;24.372;2024-03-02T11:33:24;1.40;;;1.30;;
11677;SDS011;5895;41.950;24.372;2024-03-02T11:35:54;2.28;;;2.08;;
11677;SDS011;5895;41.950;24.372;2024-03-02T11:38:24;2.08;;;1.88;;
11677;SDS011;5895;41.950;24.372;2024-03-02T11:40:53;1.75;;;1.65;;
11677;SDS011;5895;41.950;24.372;2024-03-02T11:43:21;1.75;;;1.40;;
11677;SDS011;5895;41.950;24.372;2024-03-02T11:45:48;1.73;;;1.63;;
11677;SDS011;5895;41.950;24.372;2024-03-02T11:48:23;1.70;;;1.60;;
11677;SDS011;5895;41.950;24.372;2024-03-02T11:50:52;1.48;;;1.38;;
11677;SDS011;5895;41.950;24.372;2024-03-02T11:53:19;1.58;;;1.48;;
11677;SDS011;5895;41.950;24.372;2024-03-02T11:55:48;1.38;;;1.27;;
11677;SDS011;5895;41.950;24.372;2024-03-02T11:58:16;1.40;;;1.30;;
11677;SDS011;5895;41.950;24.372;2024-03-02T12:00:45;1.50;;;1.40;;
11677;SDS011;5895;41.950;24.372;2024-03-02T12:03:13;1.50;;;1.40;;
11677;SDS011;5895;41.950;24.372;2024-03-02T12:05:40;1.25;;;1.20;;
11677;SDS011;5895;41.950;24.372;2024-03-02T12:08:09;1.88;;;1.45;;
11677;SDS011;5895;41.950;24.372;2024-03-02T12:10:39;1.45;;;1.35;;
11677;SDS011;5895;41.950;24.372;2024-03-02T12:13:07;1.30;;;1.20;;
11677;SDS011;5895;41.950;24.372;2024-03-02T12:15:36;1.30;;;1.20;;
11677;SDS011;5895;41.950;24.372;2024-03-02T12:18:05;1.20;;;1.10;;
11677;SDS011;5895;41.950;24.372;2024-03-02T12:20:33;1.00;;;1.00;;
11677;SDS011;5895;41.950;24.372;2024-03-02T12:23:01;1.00;;;1.00;;
11677;SDS011;5895;41.950;24.372;2024-03-02T12:25:31;3.40;;;3.10;;
11677;SDS011;5895;41.950;24.372;2024-03-02T12:28:00;2.90;;;1.80;;
11677;SDS011;5895;41.950;24.372;2024-03-02T12:30:29;1.52;;;1.42;;
11677;SDS011;5895;41.950;24.372;2024-03-02T12:32:58;2.00;;;1.85;;
11677;SDS011;5895;41.950;24.372;2024-03-02T12:35:25;2.85;;;2.10;;
11677;SDS011;5895;41.950;24.372;2024-03-02T12:37:53;4.65;;;4.25;;
11677;SDS011;5895;41.950;24.372;2024-03-02T12:40:20;3.80;;;3.50;;
11677;SDS011;5895;41.950;24.372;2024-03-02T12:42:48;3.67;;;2.80;;
11677;SDS011;5895;41.950;24.372;2024-03-02T12:45:16;3.33;;;3.03;;
11677;SDS011;5895;41.950;24.372;2024-03-02T12:47:50;4.63;;;4.18;;
11677;SDS011;5895;41.950;24.372;2024-03-02T12:50:17;4.55;;;4.03;;
11677;SDS011;5895;41.950;24.372;2024-03-02T12:52:50;8.52;;;7.40;;
11677;SDS011;5895;41.950;24.372;2024-03-02T12:55:19;8.10;;;7.30;;
11677;SDS011;5895;41.950;24.372;2024-03-02T12:57:47;12.10;;;8.80;;
11677;SDS011;5895;41.950;24.372;2024-03-02T13:00:17;8.57;;;7.65;;
11677;SDS011;5895;41.950;24.372;2024-03-02T13:02:45;6.72;;;6.03;;
11677;SDS011;5895;41.950;24.372;2024-03-02T13:05:15;10.60;;;9.60;;
11677;SDS011;5895;41.950;24.372;2024-03-02T13:07:42;4.95;;;3.80;;
11677;SDS011;5895;41.950;24.372;2024-03-02T13:10:10;14.10;;;12.73;;
11677;SDS011;5895;41.950;24.372;2024-03-02T13:12:38;8.48;;;7.68;;
11677;SDS011;5895;41.950;24.372;2024-03-02T13:15:06;11.05;;;9.43;;
11677;SDS011;5895;41.950;24.372;2024-03-02T13:17:34;15.27;;;12.13;;
11677;SDS011;5895;41.950;24.372;2024-03-02T13:20:02;13.95;;;12.48;;
11677;SDS011;5895;41.950;24.372;2024-03-02T13:22:37;62.40;;;56.10;;
11677;SDS011;5895;41.950;24.372;2024-03-02T13:25:04;10.38;;;9.38;;
11677;SDS011;5895;41.950;24.372;2024-03-02T13:27:35;7.93;;;6.65;;
11677;SDS011;5895;41.950;24.372;2024-03-02T13:30:03;6.00;;;5.38;;
11677;SDS011;5895;41.950;24.372;2024-03-02T13:32:31;24.58;;;22.13;;
11677;SDS011;5895;41.950;24.372;2024-03-02T13:34:58;17.15;;;15.45;;
11677;SDS011;5895;41.950;24.372;2024-03-02T13:37:25;8.07;;;7.00;;
11677;SDS011;5895;41.950;24.372;2024-03-02T13:39:54;7.05;;;5.63;;
11677;SDS011;5895;41.950;24.372;2024-03-02T13:42:20;10.32;;;9.15;;
11677;SDS011;5895;41.950;24.372;2024-03-02T13:44:48;13.10;;;11.05;;
11677;SDS011;5895;41.950;24.372;2024-03-02T13:47:16;62.08;;;52.35;;
11677;SDS011;5895;41.950;24.372;2024-03-02T13:49:43;89.10;;;64.65;;
11677;SDS011;5895;41.950;24.372;2024-03-02T13:52:11;64.40;;;47.95;;
11677;SDS011;5895;41.950;24.372;2024-03-02T13:54:39;96.93;;;86.15;;
11677;SDS011;5895;41.950;24.372;2024-03-02T13:57:09;15.43;;;13.93;;
11677;SDS011;5895;41.950;24.372;2024-03-02T13:59:37;3.13;;;2.67;;
11677;SDS011;5895;41.950;24.372;2024-03-02T14:02:05;6.70;;;6.03;;
11677;SDS011;5895;41.950;24.372;2024-03-02T14:04:33;7.30;;;6.22;;
11677;SDS011;5895;41.950;24.372;2024-03-02T14:07:00;6.35;;;5.50;;
11677;SDS011;5895;41.950;24.372;2024-03-02T14:09:28;28.27;;;22.77;;
11677;SDS011;5895;41.950;24.372;2024-03-02T14:11:55;21.70;;;17.55;;
11677;SDS011;5895;41.950;24.372;2024-03-02T14:14:24;9.25;;;7.88;;
11677;SDS011;5895;41.950;24.372;2024-03-02T14:16:52;9.93;;;8.27;;
11677;SDS011;5895;41.950;24.372;2024-03-02T14:19:19;8.65;;;6.05;;
11677;SDS011;5895;41.950;24.372;2024-03-02T14:21:46;4.15;;;3.55;;
11677;SDS011;5895;41.950;24.372;2024-03-02T14:24:13;9.55;;;6.78;;
11677;SDS011;5895;41.950;24.372;2024-03-02T14:26:40;11.23;;;6.00;;
11677;SDS011;5895;41.950;24.372;2024-03-02T14:29:08;9.80;;;6.32;;
11677;SDS011;5895;41.950;24.372;2024-03-02T14:31:36;20.38;;;8.85;;
11677;SDS011;5895;41.950;24.372;2024-03-02T14:34:03;14.52;;;8.48;;
11677;SDS011;5895;41.950;24.372;2024-03-02T14:36:30;11.98;;;9.85;;
11677;SDS011;5895;41.950;24.372;2024-03-02T14:38:59;17.83;;;16.17;;
11677;SDS011;5895;41.950;24.372;2024-03-02T14:41:26;9.60;;;8.80;;
11677;SDS011;5895;41.950;24.372;2024-03-02T14:43:53;7.60;;;6.95;;
11677;SDS011;5895;41.950;24.372;2024-03-02T14:46:20;7.65;;;6.60;;
11677;SDS011;5895;41.950;24.372;2024-03-02T14:48:49;8.10;;;7.30;;